DNMN

Minna Airport

Minna, Nigeria
METAR DNMN 182000Z 31006KT 9999 TS FEW009 FEW020CB 25/23 Q1009
Observed Flight Rules
Sep-18 @ 20:00 UTC (9 hours ago) Visual Flight Rules
Wind Visibility Clouds Conditions
310° at 6 knots 10,000+ meters
  • Few at 900' AGL
  • Few at 2,000' AGL
  • Thunderstorm
Temperatures Readings
Current 25°C / 77°F
Dewpoint 23°C / 73°F
Humidity 89%
Altimeter 29.79" Hg
Pressure 1009 hPa
Elevation 254
METAR DNMN 182000Z 31006KT 9999 TS FEW009 FEW020CB 25/23 Q1009
Observed Flight Rules
Sep-18 @ 20:00 UTC
(9 hours ago)
VFR
Wind Visibility
310° at 6 knots 10,000+ meters
Clouds
  • Few at 900' AGL
  • Few at 2,000' AGL
Conditions
  • Thunderstorm
Temperature Dewpoint
25°C / 77°F 23°C / 73°F
Humidity Altimeter Pressure
89% 29.79" Hg 1009 hPa